Time;durP1;ratioP1;P1;durP2;ratioP2;P2;SDS_P1;SDS_P2;PMS_P1;PMS_P2;Temp;Humidity;BMP_temperature;BMP_pressure;BME280_temperature;BME280_humidity;BME280_pressure;Samples;Min_cycle;Max_cycle;Signal;HPM_P1;HPM_P2
2020/12/16 00:00:08;;;;;;;34.10;16.77;;;;;;;3.63;75.66;99150.39;125549;1095;65142;-86
2020/12/16 00:02:55;;;;;;;35.15;16.50;;;;;;;3.60;75.96;99145.22;125349;1095;65211;-89
2020/12/16 00:05:23;;;;;;;42.43;17.33;;;;;;;3.58;75.96;99143.59;125232;1096;65179;-86
2020/12/16 00:07:49;;;;;;;39.73;17.10;;;;;;;3.53;75.84;99144.62;125594;1095;65248;-87
2020/12/16 00:10:15;;;;;;;32.40;15.43;;;;;;;3.50;76.51;99144.77;125589;1095;65269;-89
2020/12/16 00:12:42;;;;;;;37.73;17.27;;;;;;;3.47;76.10;99144.88;125682;1095;65153;-85
2020/12/16 00:15:10;;;;;;;34.17;16.33;;;;;;;3.44;76.12;99138.89;125332;1096;65162;-89
2020/12/16 00:17:37;;;;;;;36.70;16.10;;;;;;;3.42;76.24;99143.35;125435;1095;65159;-88
2020/12/16 00:20:05;;;;;;;32.10;15.97;;;;;;;3.37;76.01;99143.56;125645;1095;65115;-86
2020/12/16 00:22:38;;;;;;;36.23;16.20;;;;;;;3.32;76.02;99134.97;125408;1096;65249;-84
2020/12/16 00:25:07;;;;;;;29.43;15.13;;;;;;;3.28;76.04;99143.07;125397;1096;65269;-86
2020/12/16 00:27:36;;;;;;;28.83;14.70;;;;;;;3.24;75.98;99147.60;125668;1096;65137;-89
2020/12/16 00:30:06;;;;;;;31.20;15.00;;;;;;;3.24;76.52;99150.24;125545;1095;65154;-88
2020/12/16 00:32:39;;;;;;;27.40;13.30;;;;;;;3.24;76.16;99156.41;125884;1095;65304;-85
2020/12/16 00:35:08;;;;;;;31.07;14.93;;;;;;;3.25;76.06;99170.46;125510;1095;65207;-86
2020/12/16 00:37:36;;;;;;;27.70;13.90;;;;;;;3.23;75.60;99173.14;125335;1096;65176;-86
2020/12/16 00:40:05;;;;;;;34.23;15.53;;;;;;;3.22;76.07;99184.62;125288;1095;65168;-91
2020/12/16 00:42:31;;;;;;;35.23;16.17;;;;;;;3.23;76.21;99194.25;125593;1095;65304;-84
2020/12/16 00:44:58;;;;;;;25.03;12.90;;;;;;;3.24;76.92;99189.83;125459;1096;65252;-82
2020/12/16 00:47:24;;;;;;;29.73;13.80;;;;;;;3.27;76.08;99194.14;125483;1095;65252;-90
2020/12/16 00:49:55;;;;;;;27.77;13.80;;;;;;;3.29;76.76;99193.15;125275;1096;65185;-86
2020/12/16 00:52:26;;;;;;;27.17;14.33;;;;;;;3.30;76.12;99191.37;125400;1096;65232;-86
2020/12/16 00:54:53;;;;;;;28.13;13.77;;;;;;;3.31;76.07;99195.72;125550;1097;65771;-88
2020/12/16 00:57:19;;;;;;;27.13;14.37;;;;;;;3.30;76.27;99197.50;125297;1096;65166;-86
2020/12/16 00:59:46;;;;;;;27.70;13.43;;;;;;;3.30;76.31;99204.56;125798;1095;65112;-90
2020/12/16 01:02:17;;;;;;;26.93;14.27;;;;;;;3.29;76.30;99193.15;125520;1095;65156;-90
2020/12/16 01:04:44;;;;;;;25.43;12.80;;;;;;;3.30;76.32;99210.70;125296;1096;65250;-87
2020/12/16 01:07:11;;;;;;;26.07;13.57;;;;;;;3.31;76.21;99214.20;125629;1095;65111;-85
2020/12/16 01:09:37;;;;;;;27.93;14.37;;;;;;;3.32;76.14;99214.16;125313;1095;65367;-91
2020/12/16 01:12:04;;;;;;;31.70;15.93;;;;;;;3.31;76.08;99201.00;125408;1097;65127;-85
2020/12/16 01:14:31;;;;;;;32.00;15.47;;;;;;;3.30;76.60;99210.70;125449;1095;65157;-86
2020/12/16 01:16:57;;;;;;;30.13;14.90;;;;;;;3.30;76.16;99210.70;125658;1095;65150;-84
2020/12/16 01:19:25;;;;;;;29.37;14.50;;;;;;;3.33;76.40;99212.38;125539;1095;65130;-85
2020/12/16 01:21:51;;;;;;;27.87;14.93;;;;;;;3.35;76.38;99215.80;125294;1096;65105;-84
2020/12/16 01:24:18;;;;;;;29.30;14.35;;;;;;;3.38;76.31;99216.55;125325;1096;65194;-85
2020/12/16 01:26:46;;;;;;;30.13;14.37;;;;;;;3.40;76.92;99219.12;125762;1095;65188;-85
2020/12/16 01:29:14;;;;;;;26.83;13.33;;;;;;;3.40;76.28;99214.70;125507;1095;65287;-87
2020/12/16 01:31:47;;;;;;;28.83;14.07;;;;;;;3.41;76.93;99216.41;125563;1095;65175;-83
2020/12/16 01:34:22;;;;;;;29.53;13.27;;;;;;;3.45;76.27;99223.30;125510;1095;65365;-87
2020/12/16 01:36:55;;;;;;;23.47;11.57;;;;;;;3.48;76.46;99217.88;125434;1095;65152;-84
2020/12/16 01:39:21;;;;;;;25.00;13.10;;;;;;;3.51;76.37;99217.77;125507;1095;65223;-85
2020/12/16 01:41:49;;;;;;;27.97;14.17;;;;;;;3.53;76.73;99215.06;125526;1097;65230;-86
2020/12/16 01:44:22;;;;;;;29.37;13.10;;;;;;;3.53;76.34;99215.92;125552;1095;65157;-86
2020/12/16 01:46:52;;;;;;;31.03;15.27;;;;;;;3.53;76.17;99215.92;125410;1096;65313;-86
2020/12/16 01:49:22;;;;;;;25.63;12.60;;;;;;;3.55;76.10;99209.71;125392;1096;65540;-85
2020/12/16 01:51:55;;;;;;;22.93;12.97;;;;;;;3.55;76.52;99226.41;125282;1096;65146;-87
2020/12/16 01:54:24;;;;;;;26.70;12.87;;;;;;;3.58;76.89;99228.09;125520;1097;65235;-86
2020/12/16 01:56:56;;;;;;;27.00;12.60;;;;;;;3.62;75.99;99233.16;125302;1096;65626;-83
2020/12/16 01:59:36;;;;;;;23.40;13.10;;;;;;;3.65;76.13;99229.55;125829;1095;65255;-84
2020/12/16 02:02:05;;;;;;;26.67;13.03;;;;;;;3.64;76.49;99228.69;125332;1096;65214;-87
2020/12/16 02:04:38;;;;;;;25.27;13.20;;;;;;;3.64;76.53;99238.40;125500;1095;65261;-86
2020/12/16 02:07:09;;;;;;;24.60;13.37;;;;;;;3.64;76.07;99235.76;125704;1096;65025;-88
2020/12/16 02:09:39;;;;;;;26.43;13.23;;;;;;;3.63;76.27;99229.63;125347;1097;65214;-85
2020/12/16 02:12:23;;;;;;;23.50;12.25;;;;;;;3.64;76.21;99235.76;125280;1095;65277;-91
2020/12/16 02:14:50;;;;;;;24.23;12.07;;;;;;;3.65;76.09;99242.75;125574;1095;65224;-85
2020/12/16 02:17:18;;;;;;;23.53;11.97;;;;;;;3.68;76.06;99234.69;125405;1095;65368;-85
2020/12/16 02:19:56;;;;;;;23.90;12.60;;;;;;;3.69;75.97;99233.77;125350;1095;65335;-84
2020/12/16 02:22:25;;;;;;;20.83;11.70;;;;;;;3.67;76.17;99241.75;125346;1095;65133;-84
2020/12/16 02:25:13;;;;;;;21.23;12.50;;;;;;;3.65;76.00;99243.61;125218;1096;65253;-86
2020/12/16 02:27:45;;;;;;;21.70;11.23;;;;;;;3.62;76.27;99235.80;125278;1096;65198;-90
2020/12/16 02:30:17;;;;;;;21.77;11.03;;;;;;;3.62;76.42;99242.86;125408;1097;65156;-84
2020/12/16 02:33:13;;;;;;;21.47;11.03;;;;;;;3.62;76.76;99234.94;125438;1095;65174;-85
2020/12/16 02:35:47;;;;;;;22.53;11.97;;;;;;;3.62;75.87;99232.30;125716;1096;65149;-85
2020/12/16 02:38:16;;;;;;;23.13;11.83;;;;;;;3.60;75.82;99236.80;125545;1096;65306;-85
2020/12/16 02:40:42;;;;;;;23.75;12.70;;;;;;;3.59;76.44;99233.30;125323;1097;65258;-85
2020/12/16 02:43:11;;;;;;;26.33;11.70;;;;;;;3.59;76.53;99248.28;125310;1097;65211;-83
2020/12/16 02:45:38;;;;;;;25.40;12.03;;;;;;;3.58;76.59;99244.78;125378;1095;65157;-84
2020/12/16 02:48:09;;;;;;;27.55;12.05;;;;;;;3.59;76.16;99243.86;125516;1097;65160;-87
2020/12/16 02:50:37;;;;;;;24.70;12.97;;;;;;;3.59;76.02;99254.42;125246;1095;65274;-84
2020/12/16 02:53:04;;;;;;;24.63;11.73;;;;;;;3.58;75.61;99251.85;125254;1096;65080;-85
2020/12/16 02:55:50;;;;;;;23.80;12.33;;;;;;;3.58;76.26;99265.05;125938;1095;65152;-84
2020/12/16 02:58:17;;;;;;;21.77;11.20;;;;;;;3.58;76.29;99265.05;125288;1096;65246;-88
2020/12/16 03:00:43;;;;;;;23.77;12.23;;;;;;;3.61;76.23;99270.20;125285;1097;65197;-88
2020/12/16 03:03:12;;;;;;;21.47;11.60;;;;;;;3.66;76.10;99262.95;125670;1096;65294;-85
2020/12/16 03:05:57;;;;;;;25.17;12.45;;;;;;;3.70;76.45;99264.56;125305;1096;65214;-88
2020/12/16 03:08:39;;;;;;;30.13;13.07;;;;;;;3.71;76.57;99274.20;125235;1097;65182;-86
2020/12/16 03:11:16;;;;;;;23.23;12.23;;;;;;;3.71;76.15;99279.48;125546;1095;65136;-84
2020/12/16 03:13:43;;;;;;;22.27;10.73;;;;;;;3.72;76.31;99284.70;125444;1095;65441;-89
2020/12/16 03:16:22;;;;;;;25.03;12.77;;;;;;;3.74;76.83;99280.20;125362;1095;65249;-86
2020/12/16 03:18:55;;;;;;;23.00;11.27;;;;;;;3.76;76.01;99282.80;125334;1097;65226;-89
2020/12/16 03:21:23;;;;;;;22.67;11.30;;;;;;;3.78;76.25;99280.95;125285;1097;65147;-85
2020/12/16 03:23:54;;;;;;;19.90;10.97;;;;;;;3.80;76.29;99279.09;125503;1096;65207;-87
2020/12/16 03:26:40;;;;;;;25.73;12.83;;;;;;;3.82;75.91;99286.95;125530;1095;65031;-86
2020/12/16 03:29:22;;;;;;;25.30;11.77;;;;;;;3.80;76.03;99287.02;125546;1095;65307;-87
2020/12/16 03:32:09;;;;;;;23.77;12.50;;;;;;;3.78;76.92;99289.73;125482;1097;65226;-88
2020/12/16 03:34:52;;;;;;;25.33;12.73;;;;;;;3.79;76.61;99291.45;125574;1095;65191;-85
2020/12/16 03:37:25;;;;;;;25.60;12.80;;;;;;;3.82;76.08;99293.13;125381;1095;65133;-87
2020/12/16 03:39:52;;;;;;;22.23;11.57;;;;;;;3.85;76.32;99303.55;125552;1095;65283;-85
2020/12/16 03:42:24;;;;;;;22.25;11.50;;;;;;;3.89;76.67;99307.80;125566;1095;65146;-87
2020/12/16 03:44:50;;;;;;;25.13;12.47;;;;;;;3.89;76.33;99305.16;125419;1095;65230;-84
2020/12/16 03:47:17;;;;;;;25.67;12.10;;;;;;;3.90;76.87;99309.51;125341;1095;65169;-84
2020/12/16 03:49:49;;;;;;;23.90;11.43;;;;;;;3.89;76.68;99321.00;125229;1095;65544;-90
2020/12/16 03:52:15;;;;;;;23.17;11.20;;;;;;;3.91;76.38;99313.01;125638;1096;65178;-85
2020/12/16 03:54:51;;;;;;;28.47;13.03;;;;;;;3.91;76.55;99302.44;125284;1096;65127;-84
2020/12/16 03:57:43;;;;;;;25.80;13.50;;;;;;;3.92;76.22;99304.16;125398;1096;65191;-87
2020/12/16 04:00:30;;;;;;;23.10;12.00;;;;;;;3.93;76.41;99306.72;125714;1095;65176;-86
2020/12/16 04:03:01;;;;;;;22.77;11.27;;;;;;;3.94;76.10;99313.72;125273;1096;65147;-85
2020/12/16 04:05:46;;;;;;;24.50;12.73;;;;;;;3.93;76.39;99317.30;125559;1095;65175;-85
2020/12/16 04:08:13;;;;;;;27.90;12.87;;;;;;;3.91;76.93;99307.72;125291;1097;65614;-86
2020/12/16 04:10:55;;;;;;;24.20;12.67;;;;;;;3.90;76.40;99321.86;125359;1095;65162;-85
2020/12/16 04:13:22;;;;;;;28.97;13.73;;;;;;;3.90;76.30;99321.86;125348;1096;65229;-86
2020/12/16 04:15:49;;;;;;;26.60;12.80;;;;;;;3.90;75.98;99317.44;125477;1095;65697;-86
2020/12/16 04:18:15;;;;;;;24.90;12.73;;;;;;;3.91;76.25;99318.29;125345;1096;65146;-86
2020/12/16 04:20:43;;;;;;;26.53;13.50;;;;;;;3.93;76.21;99317.30;125332;1096;65306;-86
2020/12/16 04:23:10;;;;;;;32.90;17.73;;;;;;;3.93;76.63;99317.30;125447;1095;65154;-85
2020/12/16 04:25:37;;;;;;;31.20;14.97;;;;;;;3.94;76.25;99318.15;125307;1096;65364;-87
2020/12/16 04:28:05;;;;;;;23.50;13.10;;;;;;;3.93;76.11;99316.44;125527;1095;65153;-89
2020/12/16 04:30:32;;;;;;;28.10;13.63;;;;;;;3.90;76.56;99314.79;125327;1095;65235;-85
2020/12/16 04:32:59;;;;;;;28.87;14.23;;;;;;;3.89;76.77;99323.65;125613;1095;65262;-85
2020/12/16 04:35:28;;;;;;;24.40;13.40;;;;;;;3.88;76.28;99313.11;125410;1095;65185;-89
2020/12/16 04:37:55;;;;;;;24.90;12.43;;;;;;;3.87;76.40;99312.26;126033;1096;65477;-85
2020/12/16 04:40:24;;;;;;;24.13;12.67;;;;;;;3.89;76.42;99314.86;125370;1095;65257;-85
2020/12/16 04:43:03;;;;;;;26.75;12.95;;;;;;;3.91;76.17;99316.51;125422;1096;65281;-87
2020/12/16 04:45:31;;;;;;;22.47;13.13;;;;;;;3.92;75.98;99325.29;125715;1095;65299;-84
2020/12/16 04:47:57;;;;;;;25.37;12.30;;;;;;;3.90;76.65;99317.44;125293;1095;65196;-90
2020/12/16 04:50:25;;;;;;;24.30;13.27;;;;;;;3.90;76.06;99321.86;125308;1096;65182;-84
2020/12/16 04:52:54;;;;;;;27.27;14.50;;;;;;;3.88;76.26;99328.97;125512;1095;65130;-85
2020/12/16 04:55:40;;;;;;;26.20;13.67;;;;;;;3.86;76.72;99331.68;125685;1095;65201;-88
2020/12/16 04:58:17;;;;;;;27.00;12.20;;;;;;;3.84;76.45;99330.03;125232;1096;65221;-84
2020/12/16 05:00:43;;;;;;;23.65;11.60;;;;;;;3.84;76.73;99328.25;125630;1097;65246;-84
2020/12/16 05:03:20;;;;;;;19.23;10.77;;;;;;;3.85;76.48;99331.75;125592;1095;65083;-86
2020/12/16 05:06:06;;;;;;;24.70;12.90;;;;;;;3.83;76.74;99339.74;125295;1095;65143;-90
2020/12/16 05:08:32;;;;;;;23.73;11.60;;;;;;;3.84;76.19;99336.17;125512;1095;65198;-84
2020/12/16 05:10:59;;;;;;;27.93;13.77;;;;;;;3.84;76.88;99336.17;125474;1097;65217;-85
2020/12/16 05:13:26;;;;;;;27.17;13.70;;;;;;;3.84;77.25;99338.81;125382;1095;65143;-83
2020/12/16 05:16:00;;;;;;;31.00;15.50;;;;;;;3.84;76.57;99344.10;125277;1097;65188;-84
2020/12/16 05:18:26;;;;;;;32.27;15.47;;;;;;;3.84;76.89;99357.31;125285;1096;65181;-85
2020/12/16 05:20:57;;;;;;;30.93;14.10;;;;;;;3.86;76.57;99368.67;125327;1097;65425;-87
2020/12/16 05:23:26;;;;;;;26.95;13.55;;;;;;;3.87;76.76;99356.31;125522;1095;65373;-88
2020/12/16 05:25:56;;;;;;;27.50;14.37;;;;;;;3.88;76.91;99372.13;125356;1095;65173;-87
2020/12/16 05:28:46;;;;;;;27.37;13.10;;;;;;;3.88;76.47;99373.88;125295;1097;65156;-85
2020/12/16 05:31:14;;;;;;;29.27;15.27;;;;;;;3.86;76.91;99373.95;125398;1097;65166;-85
2020/12/16 05:33:46;;;;;;;37.33;16.83;;;;;;;3.85;76.50;99381.95;125309;1097;65306;-85
2020/12/16 05:36:12;;;;;;;30.43;15.37;;;;;;;3.82;76.47;99384.69;125288;1096;65310;-85
2020/12/16 05:38:56;;;;;;;27.00;14.53;;;;;;;3.80;76.75;99384.76;125275;1095;65176;-87
2020/12/16 05:41:29;;;;;;;31.00;15.30;;;;;;;3.79;76.76;99383.05;125888;1095;65146;-85
2020/12/16 05:44:20;;;;;;;27.90;14.65;;;;;;;3.79;76.34;99388.33;125348;1096;65188;-88
2020/12/16 05:46:51;;;;;;;25.43;13.40;;;;;;;3.78;76.66;99391.89;125255;1095;65281;-91
2020/12/16 05:49:25;;;;;;;24.10;12.93;;;;;;;3.75;76.37;99403.45;125334;1096;65246;-86
2020/12/16 05:51:58;;;;;;;34.53;14.70;;;;;;;3.70;76.12;99400.13;125551;1095;65173;-87
2020/12/16 05:54:24;;;;;;;24.43;13.07;;;;;;;3.67;76.56;99405.50;125213;1096;65191;-86
2020/12/16 05:57:13;;;;;;;25.60;13.10;;;;;;;3.69;76.55;99397.52;125359;1096;65135;-87
2020/12/16 05:59:39;;;;;;;30.40;14.10;;;;;;;3.67;76.36;99400.22;125519;1095;65249;-89
2020/12/16 06:02:07;;;;;;;25.00;13.70;;;;;;;3.68;76.91;99401.08;125301;1097;65284;-90
2020/12/16 06:04:37;;;;;;;26.90;13.30;;;;;;;3.69;76.84;99397.52;125492;1095;65186;-85
2020/12/16 06:07:04;;;;;;;26.13;13.87;;;;;;;3.69;76.75;99405.44;125347;1097;65255;-84
2020/12/16 06:09:32;;;;;;;23.90;13.50;;;;;;;3.68;76.84;99407.22;125341;1097;65258;-85
2020/12/16 06:12:06;;;;;;;27.80;14.53;;;;;;;3.67;76.62;99416.07;125304;1095;65188;-85
2020/12/16 06:14:34;;;;;;;26.95;13.90;;;;;;;3.68;77.39;99415.14;125264;1095;65288;-84
2020/12/16 06:17:11;;;;;;;32.40;13.57;;;;;;;3.69;76.81;99423.93;125540;1095;65201;-86
2020/12/16 06:19:44;;;;;;;30.03;15.37;;;;;;;3.70;76.99;99425.68;125575;1095;65134;-87
2020/12/16 06:22:11;;;;;;;29.40;15.17;;;;;;;3.71;77.09;99425.61;125419;1097;65236;-84
2020/12/16 06:24:43;;;;;;;32.40;14.65;;;;;;;3.71;76.91;99432.67;125327;1097;65160;-85
2020/12/16 06:27:13;;;;;;;34.70;15.33;;;;;;;3.71;76.90;99433.53;125555;1095;65315;-86
2020/12/16 06:29:47;;;;;;;46.50;18.43;;;;;;;3.71;77.17;99432.67;125330;1095;65121;-85
2020/12/16 06:32:32;;;;;;;34.70;17.70;;;;;;;3.72;76.79;99429.11;125473;1095;65211;-87
2020/12/16 06:35:00;;;;;;;39.08;16.37;;;;;;;3.76;77.47;99436.02;125553;1096;65189;-85
2020/12/16 06:37:26;;;;;;;40.00;16.30;;;;;;;3.78;76.70;99444.73;125549;1095;65176;-86
2020/12/16 06:39:52;;;;;;;34.20;16.10;;;;;;;3.81;77.27;99449.88;125499;1095;65127;-86
2020/12/16 06:42:33;;;;;;;39.60;16.60;;;;;;;3.82;77.12;99445.45;125511;1095;65150;-86
2020/12/16 06:45:13;;;;;;;36.37;19.40;;;;;;;3.84;76.68;99448.92;125383;1095;65230;-86
2020/12/16 06:47:40;;;;;;;53.37;22.03;;;;;;;3.84;77.33;99452.42;125542;1096;65583;-86
2020/12/16 06:50:21;;;;;;;37.53;17.80;;;;;;;3.84;77.25;99447.14;125313;1095;65162;-89
2020/12/16 06:52:49;;;;;;;36.23;17.70;;;;;;;3.86;76.84;99453.21;125513;1095;65159;-85
2020/12/16 06:55:15;;;;;;;32.73;16.93;;;;;;;3.89;77.17;99460.17;125445;1093;65224;-84
2020/12/16 06:57:49;;;;;;;34.97;17.00;;;;;;;3.91;76.74;99466.25;125566;1095;65182;-84
2020/12/16 07:00:20;;;;;;;38.37;17.70;;;;;;;3.93;77.31;99467.05;125348;1095;65204;-89
2020/12/16 07:02:55;;;;;;;47.37;20.70;;;;;;;3.94;77.01;99466.98;125243;1097;65233;-86
2020/12/16 07:05:52;;;;;;;54.83;22.30;;;;;;;3.96;76.97;99472.23;125399;1095;65153;-86
2020/12/16 07:08:28;;;;;;;60.93;23.10;;;;;;;3.97;76.95;99473.95;125612;1095;65238;-84
2020/12/16 07:10:59;;;;;;;68.50;25.13;;;;;;;3.97;76.73;99466.02;125198;1095;65237;-87
2020/12/16 07:13:33;;;;;;;60.53;23.07;;;;;;;3.96;76.90;99466.95;125211;1096;65291;-86
2020/12/16 07:16:12;;;;;;;;;;;;;;;3.95;77.43;99471.38;125213;1096;65137;-87
2020/12/16 07:18:51;;;;;;;72.10;25.00;;;;;;;3.97;77.40;99479.23;125214;1090;65255;-86
2020/12/16 07:21:28;;;;;;;58.65;21.85;;;;;;;4.00;76.86;99473.81;125127;1096;65189;-85
2020/12/16 07:24:08;;;;;;;59.70;20.92;;;;;;;4.03;76.83;99485.14;125487;1095;65561;-85
2020/12/16 07:27:15;;;;;;;60.73;24.27;;;;;;;4.06;76.83;99487.65;125580;1095;65127;-87
2020/12/16 07:29:59;;;;;;;59.47;25.03;;;;;;;4.07;77.05;99485.87;125148;1098;65285;-84
2020/12/16 07:32:28;;;;;;;64.73;25.33;;;;;;;4.08;77.03;99487.62;124837;1100;65208;-85
2020/12/16 07:35:02;;;;;;;44.73;18.40;;;;;;;4.07;77.56;99483.22;124844;1100;65346;-86
2020/12/16 07:37:35;;;;;;;46.60;18.47;;;;;;;4.05;76.99;99479.78;124984;1100;65214;-84
2020/12/16 07:40:15;;;;;;;45.45;17.90;;;;;;;4.05;77.12;99480.64;124869;1098;65691;-84
2020/12/16 07:42:43;;;;;;;43.37;18.23;;;;;;;4.06;76.67;99479.72;124943;1100;65264;-84
2020/12/16 07:45:11;;;;;;;36.23;15.90;;;;;;;4.09;76.73;99485.83;124972;1100;65319;-85
2020/12/16 07:47:42;;;;;;;41.03;17.57;;;;;;;4.12;77.23;99488.34;125185;1098;65209;-85
2020/12/16 07:50:13;;;;;;;41.65;17.45;;;;;;;4.13;77.18;99482.98;125143;1098;65366;-84
2020/12/16 07:52:41;;;;;;;44.87;18.90;;;;;;;4.14;76.90;99482.09;124763;1100;65445;-84
2020/12/16 07:55:13;;;;;;;61.90;22.60;;;;;;;4.15;76.71;99488.23;125172;1098;65202;-84
2020/12/16 07:57:41;;;;;;;39.47;16.70;;;;;;;4.14;76.90;99490.02;125156;1100;65233;-84
2020/12/16 08:00:12;;;;;;;31.93;16.00;;;;;;;4.17;77.68;99489.89;124918;1100;65405;-83
2020/12/16 08:02:44;;;;;;;42.07;18.97;;;;;;;4.21;76.99;99485.36;125182;1098;65109;-83
2020/12/16 08:05:14;;;;;;;45.40;17.97;;;;;;;4.26;76.80;99494.83;125100;1095;65248;-84
2020/12/16 08:07:42;;;;;;;35.13;16.07;;;;;;;4.32;77.43;99493.70;125671;1095;65178;-84
2020/12/16 08:10:11;;;;;;;31.60;15.90;;;;;;;4.36;76.95;99502.38;125520;1096;65198;-83
2020/12/16 08:12:42;;;;;;;33.03;17.23;;;;;;;4.39;76.61;99505.78;125439;1096;65220;-83
2020/12/16 08:15:18;;;;;;;32.07;16.67;;;;;;;4.42;77.27;99510.08;125298;1095;65160;-84
2020/12/16 08:17:52;;;;;;;27.00;15.78;;;;;;;4.44;77.30;99510.87;125470;1096;65136;-84
2020/12/16 08:20:25;;;;;;;28.10;13.95;;;;;;;4.48;76.31;99504.55;125699;1096;65185;-83
2020/12/16 08:22:58;;;;;;;24.07;13.40;;;;;;;4.52;77.38;99508.80;125430;1095;65220;-84
2020/12/16 08:25:27;;;;;;;33.43;15.50;;;;;;;4.56;77.21;99513.87;125391;1095;65200;-83
2020/12/16 08:27:56;;;;;;;28.13;15.13;;;;;;;4.60;77.07;99512.84;125593;1095;65587;-83
2020/12/16 08:30:26;;;;;;;29.57;16.00;;;;;;;4.63;77.01;99519.78;125378;1095;65276;-84
2020/12/16 08:33:08;;;;;;;33.17;16.27;;;;;;;4.63;76.96;99516.28;125734;1095;65086;-84
2020/12/16 08:36:22;;;;;;;32.37;15.70;;;;;;;4.65;76.52;99522.39;125209;1095;65236;-85
2020/12/16 08:39:06;;;;;;;27.95;15.25;;;;;;;4.68;77.21;99530.19;125084;1095;65143;-83
2020/12/16 08:41:44;;;;;;;42.03;20.07;;;;;;;4.70;77.04;99528.33;125229;1096;65153;-83
2020/12/16 08:44:22;;;;;;;40.15;19.40;;;;;;;4.71;76.31;99532.69;125208;1096;65201;-86
2020/12/16 08:46:51;;;;;;;49.17;20.53;;;;;;;4.73;76.89;99537.02;125203;1095;65192;-82
2020/12/16 08:49:31;;;;;;;53.37;21.40;;;;;;;4.78;77.51;99535.05;125161;1096;65313;-83
2020/12/16 08:51:59;;;;;;;59.65;22.20;;;;;;;4.82;76.85;99535.77;125287;1096;65179;-82
2020/12/16 08:54:28;;;;;;;50.50;18.77;;;;;;;4.85;76.22;99535.66;125494;1095;65073;-84
2020/12/16 08:56:59;;;;;;;54.00;20.10;;;;;;;4.88;76.90;99544.31;125351;1096;65143;-84
2020/12/16 08:59:31;;;;;;;36.57;17.63;;;;;;;4.94;77.38;99543.20;125149;1095;65526;-83
2020/12/16 09:02:07;;;;;;;34.17;17.93;;;;;;;4.97;76.29;99540.45;125481;1095;65253;-83
2020/12/16 09:04:44;;;;;;;35.17;17.37;;;;;;;4.99;77.19;99538.59;125607;1095;65102;-84
2020/12/16 09:07:24;;;;;;;29.50;16.83;;;;;;;4.97;77.33;99540.45;125289;1096;65217;-83
2020/12/16 09:09:55;;;;;;;31.90;16.30;;;;;;;4.98;77.06;99542.17;125159;1096;65074;-84
2020/12/16 09:12:25;;;;;;;33.30;16.05;;;;;;;4.99;76.62;99538.59;125313;1096;65156;-84
2020/12/16 09:14:59;;;;;;;37.80;16.07;;;;;;;4.98;77.00;99536.87;125405;1095;65240;-83
2020/12/16 09:17:30;;;;;;;32.17;16.40;;;;;;;5.03;76.62;99545.48;125192;1096;65178;-84
2020/12/16 09:20:11;;;;;;;32.17;17.17;;;;;;;5.06;76.63;99537.41;125110;1095;65086;-85
2020/12/16 09:22:42;;;;;;;44.20;20.40;;;;;;;5.10;76.84;99546.09;125271;1096;65240;-84
2020/12/16 09:25:16;;;;;;;62.30;28.40;;;;;;;5.11;76.28;99546.02;125175;1096;65300;-83
2020/12/16 09:27:57;;;;;;;68.53;30.40;;;;;;;5.08;76.90;99548.78;125379;1096;65159;-85
2020/12/16 09:30:29;;;;;;;65.07;27.90;;;;;;;5.07;77.44;99544.42;125191;1095;65156;-83
2020/12/16 09:33:14;;;;;;;73.57;34.00;;;;;;;5.05;77.04;99543.63;125327;1095;65137;-84
2020/12/16 09:35:43;;;;;;;60.97;28.53;;;;;;;5.07;76.55;99551.50;125249;1096;65124;-84
2020/12/16 09:38:17;;;;;;;58.35;31.70;;;;;;;5.09;76.93;99549.64;125186;1096;65159;-83
2020/12/16 09:40:48;;;;;;;52.20;28.87;;;;;;;5.08;76.75;99548.78;125196;1095;65156;-84
2020/12/16 09:43:17;;;;;;;53.60;28.03;;;;;;;5.07;76.94;99547.06;125469;1095;65200;-83
2020/12/16 09:45:46;;;;;;;55.90;27.63;;;;;;;5.06;77.24;99544.48;125144;1096;65660;-83
2020/12/16 09:48:28;;;;;;;50.43;26.17;;;;;;;5.04;77.03;99541.91;125506;1095;65171;-84
2020/12/16 09:51:19;;;;;;;40.93;21.77;;;;;;;5.03;76.50;99549.92;125441;1095;65172;-86
2020/12/16 09:53:54;;;;;;;42.30;22.43;;;;;;;5.03;77.09;99549.92;125215;1095;65204;-85
2020/12/16 09:56:26;;;;;;;45.00;22.90;;;;;;;5.01;76.89;99554.40;125210;1096;65214;-84
2020/12/16 09:59:06;;;;;;;41.10;20.67;;;;;;;5.00;76.84;99545.60;125427;1096;65175;-84
2020/12/16 10:01:39;;;;;;;51.23;24.43;;;;;;;4.97;76.83;99545.74;125167;1095;65269;-84
2020/12/16 10:04:09;;;;;;;47.87;23.27;;;;;;;4.99;76.71;99550.97;125132;1096;65144;-84
2020/12/16 10:06:38;;;;;;;41.03;21.73;;;;;;;5.00;77.05;99540.31;125672;1095;65207;-84
2020/12/16 10:09:07;;;;;;;32.03;19.47;;;;;;;5.03;76.78;99545.48;125668;1095;65083;-85
2020/12/16 10:11:38;;;;;;;37.53;19.87;;;;;;;5.10;77.19;99546.95;125401;1095;65142;-85
2020/12/16 10:14:07;;;;;;;43.93;20.87;;;;;;;5.18;76.48;99551.06;125401;1095;65141;-84
2020/12/16 10:16:48;;;;;;;43.73;22.97;;;;;;;5.22;76.50;99555.31;125224;1096;65154;-84
2020/12/16 10:19:27;;;;;;;48.70;24.87;;;;;;;5.23;76.40;99546.44;125799;1091;65301;-84
2020/12/16 10:22:00;;;;;;;40.80;23.53;;;;;;;5.24;76.86;99549.02;125494;1096;65223;-86
2020/12/16 10:24:31;;;;;;;41.30;20.25;;;;;;;5.28;76.62;99549.73;125685;1096;65814;-86
2020/12/16 10:27:01;;;;;;;33.83;18.80;;;;;;;5.26;76.52;99546.30;125394;1095;65079;-85
2020/12/16 10:29:33;;;;;;;35.83;20.53;;;;;;;5.24;76.50;99554.31;125473;1095;65182;-84
2020/12/16 10:32:02;;;;;;;39.77;23.03;;;;;;;5.27;76.31;99542.71;125295;1096;65194;-85
2020/12/16 10:34:31;;;;;;;40.13;22.07;;;;;;;5.29;76.51;99554.98;125600;1089;66319;-86
2020/12/16 10:37:02;;;;;;;60.63;29.63;;;;;;;5.35;76.86;99551.22;125462;1095;65226;-85
2020/12/16 10:39:40;;;;;;;61.93;28.83;;;;;;;5.34;76.37;99549.47;125183;1095;65169;-83
2020/12/16 10:42:10;;;;;;;52.00;27.25;;;;;;;5.35;76.74;99551.22;125180;1096;65186;-90
2020/12/16 10:44:41;;;;;;;52.93;27.07;;;;;;;5.33;76.27;99547.75;125298;1096;65166;-85
2020/12/16 10:47:11;;;;;;;47.25;24.90;;;;;;;5.34;77.00;99550.36;125229;1096;65185;-85
2020/12/16 10:49:46;;;;;;;40.47;22.63;;;;;;;5.37;76.29;99550.20;125193;1095;65269;-87
2020/12/16 10:52:24;;;;;;;40.70;21.50;;;;;;;5.41;76.70;99550.95;125613;1095;65130;-87
2020/12/16 10:55:02;;;;;;;40.73;23.03;;;;;;;5.46;76.65;99554.23;125218;1096;65143;-86
2020/12/16 10:57:44;;;;;;;42.70;22.03;;;;;;;5.52;76.45;99546.02;125570;1095;65092;-85
2020/12/16 11:00:21;;;;;;;51.07;27.13;;;;;;;5.63;77.04;99546.42;125764;1095;65243;-86
2020/12/16 11:02:54;;;;;;;48.50;26.17;;;;;;;5.76;76.79;99540.58;125399;1096;65265;-87
2020/12/16 11:05:25;;;;;;;44.50;24.63;;;;;;;5.90;77.40;99544.32;125404;1097;65275;-87
2020/12/16 11:07:58;;;;;;;46.30;24.33;;;;;;;6.00;76.71;99534.20;125374;1095;65124;-86
2020/12/16 11:10:27;;;;;;;52.87;25.73;;;;;;;6.05;76.87;99534.86;125501;1096;65263;-86
2020/12/16 11:13:04;;;;;;;40.53;22.10;;;;;;;6.09;76.25;99538.22;125287;1096;65136;-86
2020/12/16 11:15:36;;;;;;;42.43;24.00;;;;;;;6.12;77.05;99531.00;125222;1095;65147;-86
2020/12/16 11:18:09;;;;;;;50.30;23.43;;;;;;;6.19;76.43;99529.77;125401;1096;65226;-86
2020/12/16 11:20:38;;;;;;;46.53;22.37;;;;;;;6.27;76.27;99534.71;125557;1095;65117;-86
2020/12/16 11:23:10;;;;;;;44.93;23.27;;;;;;;6.28;76.39;99532.92;125160;1097;65216;-87
2020/12/16 11:25:42;;;;;;;48.50;25.50;;;;;;;6.26;76.49;99537.45;125369;1096;65274;-86
2020/12/16 11:28:15;;;;;;;46.87;22.97;;;;;;;6.24;76.29;99526.91;125871;1095;65198;-87
2020/12/16 11:30:46;;;;;;;59.70;24.93;;;;;;;6.17;76.26;99525.45;125168;1096;65238;-86
2020/12/16 11:33:16;;;;;;;61.80;26.63;;;;;;;6.08;76.62;99523.24;125546;1095;65236;-87
2020/12/16 11:35:45;;;;;;;62.43;28.37;;;;;;;6.03;76.32;99519.94;125177;1097;65307;-85
2020/12/16 11:38:15;;;;;;;65.50;27.73;;;;;;;6.01;76.71;99520.02;125417;1097;65162;-85
2020/12/16 11:40:53;;;;;;;76.70;29.03;;;;;;;6.01;76.86;99524.46;125330;1095;65182;-85